Time;durP1;ratioP1;P1;durP2;ratioP2;P2;SDS_P1;SDS_P2;PMS_P1;PMS_P2;Temp;Humidity;BMP_temperature;BMP_pressure;BME280_temperature;BME280_humidity;BME280_pressure;Samples;Min_cycle;Max_cycle;Signal;HPM_P1;HPM_P2
2022/09/06 00:01:15;;;;;;;;;3.00;3.00;;;;;21.75;64.18;101101.53;4973756;28;46559;-50
2022/09/06 00:03:41;;;;;;;;;8.80;7.00;;;;;21.70;63.76;101093.19;4973917;28;45407;-52
2022/09/06 00:06:08;;;;;;;;;6.00;4.75;;;;;21.70;64.04;101101.31;4973946;28;45703;-50
2022/09/06 00:08:34;;;;;;;;;6.50;5.00;;;;;21.70;63.85;101109.44;4974288;28;45418;-49
2022/09/06 00:10:59;;;;;;;;;5.25;5.25;;;;;21.66;63.95;101103.63;4973691;28;45158;-48
2022/09/06 00:13:24;;;;;;;;;6.75;5.75;;;;;21.62;63.44;101099.66;4973230;28;45273;-50
2022/09/06 00:15:50;;;;;;;;;8.00;5.00;;;;;21.57;64.48;101104.03;4974105;28;45463;-51
2022/09/06 00:18:16;;;;;;;;;5.00;5.00;;;;;21.52;64.34;101101.97;4973853;28;45368;-48
2022/09/06 00:20:41;;;;;;;;;5.75;3.75;;;;;21.54;64.04;101112.59;4973810;28;45387;-52
2022/09/06 00:23:07;;;;;;;;;6.50;5.00;;;;;21.50;64.38;101106.75;4973516;28;45401;-49
2022/09/06 00:25:33;;;;;;;;;6.00;4.00;;;;;21.48;64.19;101124.25;4973698;28;45417;-47
2022/09/06 00:28:01;;;;;;;;;5.00;5.00;;;;;21.48;64.48;101125.06;4973838;28;45504;-52
2022/09/06 00:30:27;;;;;;;;;7.00;6.40;;;;;21.46;63.60;101121.75;4973369;28;46172;-51
2022/09/06 00:32:53;;;;;;;;;5.20;5.20;;;;;21.43;64.90;101127.56;4973298;28;45408;-49
2022/09/06 00:35:20;;;;;;;;;6.40;5.00;;;;;21.44;63.67;101118.41;4974599;28;45383;-48
2022/09/06 00:37:46;;;;;;;;;3.00;3.00;;;;;21.45;63.68;101121.94;4976634;28;46047;-50
2022/09/06 00:40:12;;;;;;;;;9.00;6.00;;;;;21.44;64.42;101115.69;4977566;28;45374;-50
2022/09/06 00:42:37;;;;;;;;;5.00;5.00;;;;;21.33;64.57;101089.28;4976379;28;45253;-50
2022/09/06 00:45:06;;;;;;;;;4.75;4.75;;;;;21.44;64.48;101123.81;4976523;28;45436;-48
2022/09/06 00:47:34;;;;;;;;;6.00;5.00;;;;;21.38;64.93;101117.38;4976925;28;45265;-50
2022/09/06 00:50:01;;;;;;;;;5.50;4.00;;;;;21.34;64.71;101118.00;4976169;28;46189;-49
2022/09/06 00:52:28;;;;;;;;;7.00;5.20;;;;;21.36;64.99;101121.31;4976306;28;45370;-51
2022/09/06 00:54:54;;;;;;;;;5.80;4.20;;;;;21.36;65.30;101114.06;4976621;28;45287;-46
2022/09/06 00:57:20;;;;;;;;;5.00;5.00;;;;;21.37;65.25;101113.03;4976414;28;45470;-46
2022/09/06 00:59:47;;;;;;;;;5.00;5.00;;;;;21.38;64.43;101117.38;4976328;28;45488;-49
2022/09/06 01:02:12;;;;;;;;;7.40;5.20;;;;;21.36;65.13;101115.91;4976253;28;45512;-48
2022/09/06 01:04:42;;;;;;;;;6.00;6.00;;;;;21.35;64.73;101125.06;4976471;28;45395;-47
2022/09/06 01:07:41;;;;;;;;;6.25;5.75;;;;;21.35;64.74;101114.25;4976397;28;45885;-51
2022/09/06 01:10:09;;;;;;;;;6.25;5.25;;;;;21.36;64.98;101118.63;4976088;28;45221;-48
2022/09/06 01:13:09;;;;;;;;;9.20;7.00;;;;;21.31;64.96;101119.22;4975943;28;45285;-49
2022/09/06 01:15:44;;;;;;;;;6.40;5.00;;;;;21.30;65.45;101116.72;4976276;28;45379;-45
2022/09/06 01:18:31;;;;;;;;;8.50;5.00;;;;;21.31;65.15;101115.69;4976397;28;45442;-47
2022/09/06 01:21:03;;;;;;;;;6.75;6.00;;;;;21.33;65.28;101111.78;4975864;28;46952;-48
2022/09/06 01:23:42;;;;;;;;;6.00;6.00;;;;;21.31;64.73;101123.78;4975990;28;45468;-55
2022/09/06 01:26:23;;;;;;;;;5.80;5.80;;;;;21.29;64.78;101120.47;4976222;28;45410;-53
2022/09/06 01:28:51;;;;;;;;;6.00;4.00;;;;;21.25;65.26;101117.34;4976316;28;45520;-46
2022/09/06 01:31:29;;;;;;;;;6.75;6.00;;;;;21.07;65.00;101099.03;4975695;28;46376;-46
2022/09/06 01:34:07;;;;;;;;;9.00;5.60;;;;;21.16;64.58;101113.19;4975601;28;45449;-49
2022/09/06 01:36:44;;;;;;;;;10.00;6.20;;;;;21.12;65.51;101112.78;4975963;28;45355;-48
2022/09/06 01:39:19;;;;;;;;;2.25;0.75;;;;;20.97;66.34;101095.06;4976102;28;45466;-48
2022/09/06 01:41:44;;;;;;;;;6.00;6.00;;;;;20.98;66.44;101097.56;4974514;28;46437;-49
2022/09/06 01:44:10;;;;;;;;;8.00;6.50;;;;;21.01;66.23;101110.66;4975614;28;45442;-49
2022/09/06 01:46:49;;;;;;;;;8.75;7.00;;;;;20.99;66.70;101118.19;4974990;28;45308;-47
2022/09/06 01:49:51;;;;;;;;;9.25;5.25;;;;;20.97;66.85;101117.53;4975978;28;45268;-51
2022/09/06 01:52:41;;;;;;;;;8.00;6.00;;;;;20.93;67.23;101110.88;4975392;28;46293;-56
2022/09/06 01:55:28;;;;;;;;;7.25;7.25;;;;;20.90;66.39;101114.00;4975326;28;45452;-50
2022/09/06 01:58:02;;;;;;;;;9.00;7.00;;;;;20.76;67.42;101109.59;4975643;28;45629;-57
2022/09/06 02:00:28;;;;;;;;;8.25;7.75;;;;;20.83;68.01;101121.25;4976086;28;45433;-53
2022/09/06 02:03:06;;;;;;;;;9.00;7.25;;;;;20.82;67.61;101111.50;4974297;28;45281;-50
2022/09/06 02:05:44;;;;;;;;;7.00;7.00;;;;;20.79;68.13;101115.44;4975474;28;45504;-59
2022/09/06 02:08:16;;;;;;;;;7.75;7.25;;;;;20.77;68.27;101112.06;4976677;28;45504;-48
2022/09/06 02:10:56;;;;;;;;;5.75;5.75;;;;;20.78;68.10;101113.75;4975708;28;45404;-49
2022/09/06 02:13:26;;;;;;;;;9.25;6.50;;;;;20.79;67.47;101106.50;4975026;28;46493;-50
2022/09/06 02:15:59;;;;;;;;;8.50;8.50;;;;;20.77;67.33;101098.56;4975422;28;45447;-49
2022/09/06 02:18:32;;;;;;;;;7.75;7.75;;;;;20.65;68.18;101082.13;4975341;28;45373;-51
2022/09/06 02:21:01;;;;;;;;;9.50;7.00;;;;;20.68;67.85;101087.09;4975844;28;45477;-48
2022/09/06 02:23:32;;;;;;;;;9.75;8.00;;;;;20.69;68.43;101093.38;4975113;28;46252;-48
2022/09/06 02:26:04;;;;;;;;;8.25;8.00;;;;;20.63;68.24;101086.91;4974933;28;45424;-58
2022/09/06 02:28:30;;;;;;;;;7.00;7.00;;;;;20.63;68.37;101103.13;4975101;28;45600;-49
2022/09/06 02:31:00;;;;;;;;;8.75;7.00;;;;;20.51;68.20;101091.22;4975237;28;45387;-49
2022/09/06 02:33:30;;;;;;;;;7.50;6.00;;;;;20.61;68.20;101105.19;4974732;28;45374;-47
2022/09/06 02:36:02;;;;;;;;;9.00;7.75;;;;;20.64;68.09;101106.66;4975269;28;45632;-47
2022/09/06 02:38:28;;;;;;;;;10.75;8.50;;;;;20.61;68.67;101107.06;4974473;28;45401;-50
2022/09/06 02:40:55;;;;;;;;;10.00;7.00;;;;;20.55;69.09;101094.34;4975240;28;45445;-56
2022/09/06 02:43:21;;;;;;;;;8.00;8.00;;;;;20.56;68.78;101094.19;4973755;28;46661;-47
2022/09/06 02:45:47;;;;;;;;;11.25;8.25;;;;;20.58;68.22;101093.97;4974840;28;45414;-50
2022/09/06 02:48:13;;;;;;;;;9.00;9.00;;;;;20.50;68.94;101089.56;4975283;28;45445;-50
2022/09/06 02:50:38;;;;;;;;;9.00;8.50;;;;;20.42;68.88;101081.59;4975292;28;45458;-56
2022/09/06 02:53:10;;;;;;;;;9.00;7.50;;;;;20.38;68.59;101094.69;4974777;28;45234;-52
2022/09/06 02:55:36;;;;;;;;;9.75;9.00;;;;;20.34;69.46;101103.41;4975070;28;45367;-49
2022/09/06 02:58:01;;;;;;;;;11.25;9.25;;;;;20.35;69.22;101096.97;4974589;28;45332;-48
2022/09/06 03:00:28;;;;;;;;;8.25;6.50;;;;;20.24;69.60;101090.28;4975120;28;45380;-50
2022/09/06 03:02:54;;;;;;;;;9.25;7.50;;;;;20.32;69.67;101081.16;4974932;28;46364;-48
2022/09/06 03:05:21;;;;;;;;;7.00;7.00;;;;;20.24;69.28;101071.38;4974543;28;45430;-48
2022/09/06 03:07:46;;;;;;;;;14.25;11.00;;;;;20.24;69.66;101092.97;4975078;28;45355;-49
2022/09/06 03:10:12;;;;;;;;;13.50;9.00;;;;;20.25;69.97;101107.31;4975134;28;45430;-54
2022/09/06 03:12:37;;;;;;;;;8.25;7.50;;;;;20.25;69.94;101110.03;4974560;28;46261;-50
2022/09/06 03:15:03;;;;;;;;;9.50;8.25;;;;;20.25;69.96;101097.34;4974676;28;45303;-50
2022/09/06 03:17:29;;;;;;;;;8.75;8.75;;;;;20.25;69.41;101100.03;4974448;28;45289;-54
2022/09/06 03:19:54;;;;;;;;;9.00;8.00;;;;;20.22;69.44;101105.00;4975002;28;45347;-53
2022/09/06 03:22:19;;;;;;;;;9.25;9.25;;;;;20.22;70.16;101113.13;4974259;28;46181;-57
2022/09/06 03:24:44;;;;;;;;;9.50;9.50;;;;;19.84;70.00;101056.84;4974487;28;45375;-48
2022/09/06 03:27:10;;;;;;;;;13.25;8.50;;;;;20.19;70.32;101108.97;4974788;28;45241;-48
2022/09/06 03:29:35;;;;;;;;;9.50;9.25;;;;;20.18;69.36;101102.75;4974702;28;45237;-46
2022/09/06 03:32:01;;;;;;;;;10.25;8.75;;;;;20.14;70.61;101114.13;4974473;28;47038;-56
2022/09/06 03:34:26;;;;;;;;;8.00;8.00;;;;;20.11;70.02;101126.16;4974320;28;45343;-55
2022/09/06 03:36:51;;;;;;;;;9.75;9.00;;;;;20.06;69.11;101117.84;4973021;28;45472;-47
2022/09/06 03:39:17;;;;;;;;;11.00;8.75;;;;;20.08;69.77;101120.34;4974554;28;45352;-50
2022/09/06 03:41:42;;;;;;;;;9.75;8.00;;;;;19.99;70.45;101119.66;4974233;28;45459;-49
2022/09/06 03:44:07;;;;;;;;;12.75;11.50;;;;;20.04;70.44;101128.00;4974257;28;45461;-47
2022/09/06 03:46:33;;;;;;;;;18.67;14.00;;;;;20.00;70.58;101128.59;4974182;28;45330;-46
2022/09/06 03:48:59;;;;;;;;;20.33;20.00;;;;;20.03;70.83;101131.72;4974375;28;45424;-49
2022/09/06 03:51:24;;;;;;;;;23.33;19.00;;;;;20.00;71.01;101137.53;4975327;28;45972;-51
2022/09/06 03:53:50;;;;;;;;;24.00;22.67;;;;;20.05;70.95;101150.44;4973970;28;45375;-52
2022/09/06 03:56:15;;;;;;;;;21.00;17.00;;;;;20.08;70.57;101153.56;4976222;28;45402;-48
2022/09/06 03:58:41;;;;;;;;;25.33;20.33;;;;;20.14;70.44;101154.63;4974015;28;45445;-46
2022/09/06 04:01:09;;;;;;;;;27.67;24.00;;;;;20.15;70.39;101151.75;4973828;28;45375;-50
2022/09/06 04:03:35;;;;;;;;;33.33;27.00;;;;;20.13;70.12;101158.38;4973884;28;45170;-49
2022/09/06 04:06:01;;;;;;;;;38.33;28.00;;;;;20.12;69.61;101162.94;4973866;28;45455;-58
2022/09/06 04:08:27;;;;;;;;;23.67;22.67;;;;;20.09;70.23;101171.44;4973171;28;45407;-54
2022/09/06 04:10:53;;;;;;;;;23.25;18.25;;;;;20.01;70.28;101182.41;4975485;28;46269;-48
2022/09/06 04:13:20;;;;;;;;;16.25;9.00;;;;;19.81;69.36;101155.28;4976704;28;45329;-47
2022/09/06 04:15:46;;;;;;;;;14.25;12.25;;;;;19.88;70.70;101183.13;4977115;28;45347;-48
2022/09/06 04:18:12;;;;;;;;;14.50;11.50;;;;;19.84;70.56;101172.94;4977257;28;45450;-47
2022/09/06 04:20:37;;;;;;;;;11.00;9.00;;;;;19.84;70.95;101172.94;4977003;28;45256;-48
2022/09/06 04:23:02;;;;;;;;;11.75;9.00;;;;;19.87;70.47;101175.25;4976623;28;45360;-46
2022/09/06 04:25:28;;;;;;;;;15.75;12.50;;;;;19.88;70.66;101166.94;4976888;28;45343;-48
2022/09/06 04:27:53;;;;;;;;;10.75;9.00;;;;;19.91;70.64;101177.34;4977189;28;45344;-47
2022/09/06 04:30:19;;;;;;;;;12.75;9.50;;;;;19.94;70.60;101174.28;4976450;28;45399;-48
2022/09/06 04:32:44;;;;;;;;;10.75;10.25;;;;;19.96;70.13;101181.34;4976553;28;45337;-47
2022/09/06 04:35:09;;;;;;;;;16.25;11.75;;;;;19.96;70.27;101189.44;4976885;28;45196;-49
2022/09/06 04:37:35;;;;;;;;;13.75;11.25;;;;;19.99;70.35;101186.34;4976632;28;45851;-54
2022/09/06 04:40:00;;;;;;;;;10.75;10.25;;;;;20.02;70.66;101191.34;4976590;28;45274;-49
2022/09/06 04:42:26;;;;;;;;;11.50;9.00;;;;;20.02;70.17;101199.47;4976398;28;45359;-55
2022/09/06 04:44:51;;;;;;;;;12.50;10.00;;;;;20.02;70.09;101194.88;4976475;28;45347;-51
2022/09/06 04:47:18;;;;;;;;;8.25;8.25;;;;;20.06;68.88;101201.56;4976798;28;45348;-51
2022/09/06 04:49:44;;;;;;;;;10.00;8.50;;;;;20.07;69.37;101199.69;4976328;28;45491;-47
2022/09/06 04:52:10;;;;;;;;;12.00;8.75;;;;;20.03;69.35;101196.56;4976407;28;45378;-47
2022/09/06 04:54:36;;;;;;;;;11.25;8.75;;;;;20.10;68.87;101212.78;4976194;28;45356;-50
2022/09/06 04:57:01;;;;;;;;;8.75;8.75;;;;;20.08;68.90;101207.59;4976759;28;45327;-56
2022/09/06 04:59:27;;;;;;;;;10.00;8.00;;;;;20.13;69.37;101218.63;4976289;28;46182;-58
2022/09/06 05:01:52;;;;;;;;;12.50;7.75;;;;;20.15;68.72;101207.66;4976025;28;45215;-47
2022/09/06 05:04:17;;;;;;;;;10.00;9.00;;;;;20.16;68.65;101207.44;4976315;28;45252;-47
2022/09/06 05:06:43;;;;;;;;;8.75;8.00;;;;;20.17;68.75;101205.56;4976328;28;45471;-49
2022/09/06 05:09:08;;;;;;;;;9.00;8.25;;;;;20.17;68.35;101206.38;4976507;28;46476;-58
2022/09/06 05:11:34;;;;;;;;;8.25;8.00;;;;;20.18;68.55;101204.53;4976138;28;45255;-47
2022/09/06 05:13:59;;;;;;;;;7.75;7.00;;;;;20.15;68.10;101192.25;4976061;28;45344;-58
2022/09/06 05:16:25;;;;;;;;;10.50;9.00;;;;;20.15;67.72;101199.53;4976560;28;45313;-53
2022/09/06 05:18:50;;;;;;;;;8.00;6.00;;;;;20.21;67.68;101208.72;4975822;28;45633;-48
2022/09/06 05:21:15;;;;;;;;;8.25;8.25;;;;;20.25;68.06;101209.97;4976121;28;45257;-58
2022/09/06 05:23:41;;;;;;;;;7.25;7.25;;;;;20.22;67.66;101213.91;4976172;28;45471;-55
2022/09/06 05:26:06;;;;;;;;;10.00;9.25;;;;;20.26;67.25;101207.06;4976155;28;45405;-56
2022/09/06 05:28:32;;;;;;;;;10.50;9.75;;;;;20.28;67.84;101205.00;4976038;28;46077;-55
2022/09/06 05:31:27;;;;;;;;;9.25;7.75;;;;;20.30;67.08;101212.91;4975937;28;45272;-55
2022/09/06 05:33:53;;;;;;;;;8.00;8.00;;;;;20.33;66.99;101207.13;4976025;28;45275;-57
2022/09/06 05:36:19;;;;;;;;;13.00;11.00;;;;;20.34;66.80;101201.50;4976122;28;45324;-55
2022/09/06 05:38:44;;;;;;;;;11.00;9.75;;;;;20.44;66.72;101203.84;4975647;28;46391;-56
2022/09/06 05:41:09;;;;;;;;;6.50;6.50;;;;;20.47;66.03;101206.13;4975786;28;45427;-57
2022/09/06 05:43:35;;;;;;;;;10.25;8.50;;;;;20.48;66.84;101206.97;4976134;28;45787;-57
2022/09/06 05:46:00;;;;;;;;;9.50;9.25;;;;;20.48;66.05;101194.34;4975802;28;45482;-52
2022/09/06 05:48:25;;;;;;;;;9.25;9.00;;;;;20.55;65.86;101205.19;4975655;28;47639;-49
2022/09/06 05:51:05;;;;;;;;;9.25;9.25;;;;;20.53;65.80;101202.69;4975749;28;45432;-57
2022/09/06 05:53:39;;;;;;;;;11.75;11.75;;;;;20.51;65.73;101196.63;4977424;28;45280;-51
2022/09/06 05:56:05;;;;;;;;;12.00;10.25;;;;;20.53;65.85;101201.84;4975827;28;45492;-45
2022/09/06 05:58:30;;;;;;;;;12.25;9.00;;;;;20.52;66.07;101194.75;4975936;28;46278;-46
2022/09/06 06:01:12;;;;;;;;;12.25;8.50;;;;;20.34;65.46;101160.13;4975531;28;45390;-46
2022/09/06 06:03:37;;;;;;;;;12.25;10.00;;;;;20.50;65.96;101196.84;4975742;28;45663;-48
2022/09/06 06:06:03;;;;;;;;;10.50;9.25;;;;;20.46;66.52;101198.25;4976013;28;45313;-47
2022/09/06 06:08:28;;;;;;;;;11.00;8.50;;;;;20.50;65.97;101194.13;4975588;28;46146;-49
2022/09/06 06:10:59;;;;;;;;;10.75;9.00;;;;;20.51;66.21;101193.94;4975385;28;45277;-47
2022/09/06 06:13:26;;;;;;;;;13.25;9.75;;;;;20.59;65.83;101193.75;4974217;28;45414;-48
2022/09/06 06:15:51;;;;;;;;;11.50;11.00;;;;;20.66;65.37;101194.63;4975697;28;45339;-47
2022/09/06 06:18:17;;;;;;;;;10.00;9.00;;;;;20.70;65.64;101186.13;4975164;28;46130;-46
2022/09/06 06:20:42;;;;;;;;;10.50;10.00;;;;;20.64;65.51;101169.66;4975595;28;45217;-47
2022/09/06 06:23:07;;;;;;;;;12.00;9.25;;;;;20.75;65.84;101175.53;4975417;28;45318;-46
2022/09/06 06:25:33;;;;;;;;;11.50;9.75;;;;;20.79;65.21;101174.09;4975751;28;45445;-48
2022/09/06 06:27:58;;;;;;;;;14.00;11.00;;;;;20.84;65.02;101179.72;4975186;28;45976;-48
2022/09/06 06:30:23;;;;;;;;;15.75;10.00;;;;;20.93;65.32;101163.06;4975107;28;45232;-46
2022/09/06 06:32:49;;;;;;;;;12.75;10.00;;;;;21.04;64.41;101172.47;4974745;28;45381;-46
2022/09/06 06:35:14;;;;;;;;;11.00;9.75;;;;;21.08;63.89;101164.78;4975476;28;45212;-48
2022/09/06 06:37:41;;;;;;;;;16.75;10.00;;;;;21.25;63.63;101176.06;4974846;28;47082;-46
2022/09/06 06:40:07;;;;;;;;;11.00;9.25;;;;;21.27;63.79;101168.53;4975090;28;45331;-46
2022/09/06 06:42:32;;;;;;;;;14.00;13.00;;;;;21.42;63.56;101194.41;4975254;28;45272;-47
2022/09/06 06:44:58;;;;;;;;;11.50;9.00;;;;;21.51;63.23;101188.78;4975352;28;45594;-45
2022/09/06 06:47:23;;;;;;;;;13.00;11.00;;;;;21.63;63.06;101189.84;4974880;28;45453;-45
2022/09/06 06:49:48;;;;;;;;;12.00;11.00;;;;;21.72;63.22;101187.75;4975037;28;45324;-46
2022/09/06 06:52:14;;;;;;;;;11.00;10.75;;;;;21.87;62.84;101180.25;4975256;28;45672;-48
2022/09/06 06:54:40;;;;;;;;;12.25;11.75;;;;;21.98;61.95;101179.59;4975499;28;45292;-48
2022/09/06 06:57:08;;;;;;;;;11.50;10.25;;;;;22.06;61.84;101170.41;4974845;28;46234;-47
2022/09/06 06:59:33;;;;;;;;;14.00;9.25;;;;;22.18;61.27;101168.75;4974605;28;45260;-45
2022/09/06 07:01:59;;;;;;;;;11.50;10.00;;;;;22.34;60.97;101175.56;4974821;28;45351;-47
2022/09/06 07:04:24;;;;;;;;;11.75;11.25;;;;;22.47;60.44;101177.41;4973723;28;45344;-48
2022/09/06 07:06:55;;;;;;;;;11.50;10.25;;;;;22.62;60.22;101167.94;4974850;28;45279;-45
2022/09/06 07:09:20;;;;;;;;;16.00;8.50;;;;;22.95;59.14;101163.41;4974908;28;45339;-49
2022/09/06 07:11:49;;;;;;;;;14.00;10.75;;;;;23.35;57.81;101158.56;4974981;28;45528;-44
2022/09/06 07:14:16;;;;;;;;;11.25;11.25;;;;;23.30;57.85;101158.34;4974881;28;45402;-48
2022/09/06 07:16:42;;;;;;;;;11.25;11.25;;;;;23.45;57.64;101153.44;4974353;28;45461;-49
2022/09/06 07:19:08;;;;;;;;;11.50;10.75;;;;;23.91;57.04;101149.50;4974578;28;45541;-49
2022/09/06 07:21:33;;;;;;;;;10.75;10.50;;;;;24.53;54.88;101155.72;4974702;28;45478;-49
2022/09/06 07:23:58;;;;;;;;;10.25;8.50;;;;;25.18;54.22;101152.28;4973545;28;45330;-48
2022/09/06 07:26:27;;;;;;;;;10.50;8.75;;;;;25.82;51.67;101164.22;4974414;28;46112;-48
2022/09/06 07:28:54;;;;;;;;;10.40;8.80;;;;;26.40;50.04;101151.56;4974530;28;45296;-48
2022/09/06 07:31:20;;;;;;;;;6.80;6.80;;;;;27.29;48.01;101157.34;4974559;28;45585;-46
2022/09/06 07:33:46;;;;;;;;;6.25;5.50;;;;;28.45;45.38;101142.94;4974697;28;45438;-48
2022/09/06 07:36:11;;;;;;;;;8.60;6.00;;;;;29.83;43.42;101141.44;4974230;28;47071;-50
2022/09/06 07:38:37;;;;;;;;;9.00;7.00;;;;;31.05;39.73;101139.13;4975229;28;45413;-49
2022/09/06 07:41:07;;;;;;;;;7.00;6.75;;;;;32.09;38.19;101141.50;4974713;28;45836;-51
2022/09/06 07:43:33;;;;;;;;;5.60;5.00;;;;;33.05;35.78;101152.31;4973607;28;45350;-49
2022/09/06 07:46:02;;;;;;;;;7.00;7.00;;;;;33.91;34.64;101147.94;4975484;28;45320;-53
2022/09/06 07:48:33;;;;;;;;;8.40;8.20;;;;;34.24;35.46;101151.72;4977326;28;45446;-49
2022/09/06 07:51:04;;;;;;;;;8.00;6.20;;;;;34.35;33.63;101171.75;4975887;28;45502;-52
2022/09/06 07:53:29;;;;;;;;;11.20;5.20;;;;;34.72;32.76;101170.97;4977431;28;45409;-50
2022/09/06 07:55:55;;;;;;;;;6.00;5.25;;;;;35.42;31.39;101175.69;4976532;28;45453;-49
2022/09/06 07:58:21;;;;;;;;;6.20;6.20;;;;;36.13;30.61;101174.41;4975871;28;45450;-49
2022/09/06 08:00:47;;;;;;;;;9.40;8.80;;;;;36.72;29.56;101180.91;4976196;28;45276;-50
2022/09/06 08:03:12;;;;;;;;;7.25;7.25;;;;;37.30;29.26;101184.81;4976031;28;45579;-48
2022/09/06 08:05:38;;;;;;;;;6.50;6.50;;;;;37.75;28.63;101176.41;4975954;28;45382;-48
2022/09/06 08:08:03;;;;;;;;;10.25;7.25;;;;;38.16;27.90;101172.53;4975814;28;45382;-46
2022/09/06 08:10:29;;;;;;;;;7.50;6.00;;;;;38.63;27.53;101170.81;4975816;28;45337;-50
2022/09/06 08:12:54;;;;;;;;;6.25;6.00;;;;;39.00;27.19;101173.31;4976002;28;45417;-51
2022/09/06 08:15:20;;;;;;;;;7.50;7.00;;;;;39.06;26.43;101174.78;4975470;28;46270;-50
2022/09/06 08:17:49;;;;;;;;;7.00;7.00;;;;;39.17;25.65;101160.19;4975486;28;45920;-49
2022/09/06 08:20:14;;;;;;;;;6.00;6.00;;;;;39.32;26.75;101166.44;4975748;28;45468;-49
2022/09/06 08:22:40;;;;;;;;;5.75;5.50;;;;;39.46;25.34;101164.25;4975634;28;45402;-50
2022/09/06 08:25:06;;;;;;;;;6.75;6.00;;;;;39.71;25.26;101157.00;4975557;28;46121;-46
2022/09/06 08:27:32;;;;;;;;;7.00;4.80;;;;;39.91;24.23;101150.69;4975432;28;45332;-50
2022/09/06 08:29:57;;;;;;;;;6.25;5.00;;;;;39.48;24.91;101161.94;4975538;28;45470;-49
2022/09/06 08:32:22;;;;;;;;;5.50;5.00;;;;;38.48;25.93;101167.72;4975762;28;45488;-48
2022/09/06 08:34:48;;;;;;;;;3.00;3.00;;;;;38.64;25.46;101164.16;4975322;28;46900;-47
2022/09/06 08:37:13;;;;;;;;;6.25;4.75;;;;;38.84;25.52;101143.22;4975547;28;45353;-49
2022/09/06 08:39:39;;;;;;;;;7.75;4.75;;;;;38.58;26.16;101159.88;4974411;28;45382;-49
2022/09/06 08:42:07;;;;;;;;;4.25;4.25;;;;;38.21;26.84;101152.91;4974521;28;45414;-49
2022/09/06 08:44:42;;;;;;;;;3.40;3.40;;;;;37.82;29.78;101151.78;4974511;28;45394;-46
2022/09/06 08:47:13;;;;;;;;;4.40;3.00;;;;;37.71;29.13;101147.66;4974068;28;45441;-50
2022/09/06 08:49:45;;;;;;;;;4.40;4.40;;;;;37.58;27.11;101141.06;4974399;28;45535;-47
2022/09/06 08:52:29;;;;;;;;;3.80;2.60;;;;;37.54;27.54;101148.41;4974671;28;45417;-50
2022/09/06 08:55:05;;;;;;;;;6.60;4.00;;;;;37.67;26.22;101147.50;4974304;28;45517;-51
2022/09/06 08:57:33;;;;;;;;;9.00;3.80;;;;;37.94;27.49;101148.44;4974003;28;45477;-49
2022/09/06 09:00:12;;;;;;;;;5.20;4.00;;;;;37.98;25.75;101134.72;4974313;28;45277;-49
2022/09/06 09:03:13;;;;;;;;;7.00;4.80;;;;;38.04;26.16;101125.91;4974263;28;46119;-50
2022/09/06 09:05:41;;;;;;;;;3.00;3.00;;;;;38.22;26.06;101128.72;4975053;28;45457;-48
2022/09/06 09:08:09;;;;;;;;;7.00;5.00;;;;;38.38;24.68;101125.19;4975173;28;45378;-48
2022/09/06 09:10:51;;;;;;;;;3.60;3.00;;;;;38.76;26.79;101130.09;4974609;28;45514;-51
2022/09/06 09:13:23;;;;;;;;;4.20;4.20;;;;;39.65;26.73;101136.00;4974251;28;45708;-53
2022/09/06 09:15:49;;;;;;;;;1.40;1.40;;;;;41.16;21.43;101154.72;4973726;28;46589;-54
2022/09/06 09:18:24;;;;;;;;;3.25;3.00;;;;;43.38;22.50;101178.50;4973720;28;45340;-50
2022/09/06 09:20:50;;;;;;;;;4.00;4.00;;;;;45.38;18.08;101181.09;4973953;28;45447;-50
2022/09/06 09:23:16;;;;;;;;;3.00;3.00;;;;;46.90;16.92;101180.22;4973727;28;45434;-53
2022/09/06 09:25:42;;;;;;;;;4.00;2.50;;;;;48.13;15.32;101173.38;4973820;28;46428;-48
2022/09/06 09:28:19;;;;;;;;;2.60;2.60;;;;;49.12;14.25;101177.88;4974797;28;45384;-51
2022/09/06 09:30:48;;;;;;;;;5.20;4.40;;;;;50.15;14.59;101170.59;4973740;28;45408;-52
2022/09/06 09:33:38;;;;;;;;;7.40;5.80;;;;;50.86;14.21;101175.19;4973987;28;45442;-52
2022/09/06 09:36:21;;;;;;;;;4.60;3.60;;;;;50.91;14.58;101177.66;4973449;28;45758;-52
2022/09/06 09:38:51;;;;;;;;;4.50;4.50;;;;;51.44;13.74;101170.00;4932005;28;1214815;-48
2022/09/06 09:41:49;;;;;;;;;4.80;4.80;;;;;52.58;15.19;101168.84;4974763;28;45356;-51
2022/09/06 09:44:18;;;;;;;;;7.40;7.40;;;;;52.50;13.88;101168.09;4974791;28;45613;-52
2022/09/06 09:46:44;;;;;;;;;4.20;4.20;;;;;50.01;14.34;101165.78;4974191;28;46303;-50
2022/09/06 09:49:23;;;;;;;;;4.00;4.00;;;;;46.03;17.55;101157.75;4974576;28;45548;-52
2022/09/06 09:52:12;;;;;;;;;4.80;4.80;;;;;42.35;20.14;101168.69;4974843;27;45301;-50
2022/09/06 09:54:40;;;;;;;;;7.00;5.60;;;;;39.91;22.78;101166.59;4974793;28;45445;-55
2022/09/06 09:57:16;;;;;;;;;7.20;6.20;;;;;38.02;25.25;101169.06;4974343;28;45425;-49
2022/09/06 09:59:51;;;;;;;;;4.60;4.60;;;;;36.25;26.64;101165.56;4974497;28;45430;-51
2022/09/06 10:02:37;;;;;;;;;6.40;6.00;;;;;34.55;28.05;101168.72;4974374;28;45439;-49
2022/09/06 10:05:29;;;;;;;;;4.80;4.80;;;;;33.34;30.78;101179.94;4974494;28;45430;-48
2022/09/06 10:07:57;;;;;;;;;4.60;4.20;;;;;32.52;31.84;101177.69;4972040;27;46235;-49
2022/09/06 10:10:41;;;;;;;;;8.00;6.40;;;;;31.43;35.27;101186.44;4974211;28;45426;-47
2022/09/06 10:13:29;;;;;;;;;9.00;8.40;;;;;30.73;35.33;101193.50;4974196;28;45461;-49
2022/09/06 10:15:55;;;;;;;;;9.20;6.80;;;;;30.07;37.22;101208.50;4974583;28;45577;-48
2022/09/06 10:18:30;;;;;;;;;7.80;7.40;;;;;29.79;37.13;101203.38;4973764;28;45919;-50
2022/09/06 10:21:04;;;;;;;;;11.20;8.60;;;;;29.80;35.62;101202.31;4975621;28;45477;-49
2022/09/06 10:24:00;;;;;;;;;10.40;8.00;;;;;29.84;37.05;101192.47;4973772;28;45434;-46
2022/09/06 10:26:37;;;;;;;;;10.40;6.60;;;;;30.34;36.02;101199.38;4974416;28;45398;-47
2022/09/06 10:29:10;;;;;;;;;4.40;4.40;;;;;30.65;35.63;101200.31;4973964;28;46405;-47
2022/09/06 10:31:50;;;;;;;;;4.80;4.40;;;;;30.56;35.37;101199.19;4973995;28;45468;-48
2022/09/06 10:34:33;;;;;;;;;6.40;6.00;;;;;30.07;36.07;101202.19;4973945;28;45596;-50
2022/09/06 10:37:36;;;;;;;;;7.20;5.00;;;;;29.52;38.61;101179.59;4974111;28;45521;-48
2022/09/06 10:40:07;;;;;;;;;13.40;10.00;;;;;29.25;38.72;101173.34;4973729;28;47167;-48
2022/09/06 10:42:46;;;;;;;;;7.00;6.00;;;;;28.93;39.56;101165.88;4973688;28;45394;-48
2022/09/06 10:45:14;;;;;;;;;6.00;4.00;;;;;28.75;40.09;101158.06;4974095;28;46013;-50
2022/09/06 10:48:01;;;;;;;;;4.40;4.40;;;;;28.62;39.94;101140.13;4974011;28;45257;-46
2022/09/06 10:50:52;;;;;;;;;4.60;4.60;;;;;28.62;40.01;101131.91;4973696;28;46278;-46
2022/09/06 10:53:20;;;;;;;;;5.00;3.20;;;;;28.56;39.12;101133.75;4973789;28;45400;-50
2022/09/06 10:55:56;;;;;;;;;5.20;4.20;;;;;28.48;40.17;101131.47;4973868;28;45436;-48
2022/09/06 10:58:26;;;;;;;;;4.80;4.80;;;;;28.77;39.59;101123.00;4973969;28;45449;-46
2022/09/06 11:00:53;;;;;;;;;7.80;7.80;;;;;28.60;40.75;101110.25;4973635;28;46387;-49
2022/09/06 11:03:26;;;;;;;;;7.80;7.40;;;;;28.18;40.82;101107.28;4973449;28;45514;-47
2022/09/06 11:05:58;;;;;;;;;9.40;9.40;;;;;27.88;41.99;101104.16;4973758;28;45373;-50
2022/09/06 11:08:41;;;;;;;;;7.20;6.40;;;;;27.52;42.67;101103.63;4973879;28;45346;-49
2022/09/06 11:11:16;;;;;;;;;12.00;9.80;;;;;27.54;42.89;101096.81;4973598;28;46165;-46
2022/09/06 11:13:41;;;;;;;;;7.20;7.20;;;;;27.69;42.11;101081.75;4973534;28;45425;-50
2022/09/06 11:16:22;;;;;;;;;6.75;5.50;;;;;27.70;42.30;101100.63;4973422;28;45441;-48
2022/09/06 11:18:57;;;;;;;;;7.80;5.80;;;;;27.56;41.45;101097.41;4973712;28;45361;-48
2022/09/06 11:21:36;;;;;;;;;6.20;6.20;;;;;27.36;42.10;101103.41;4973299;28;46436;-49
2022/09/06 11:24:04;;;;;;;;;4.60;4.40;;;;;27.35;42.46;101100.94;4973437;28;45429;-50
2022/09/06 11:26:35;;;;;;;;;5.80;4.00;;;;;27.59;41.74;101088.69;4973112;28;45364;-50
2022/09/06 11:29:16;;;;;;;;;7.00;4.00;;;;;27.70;41.12;101089.69;4973772;28;45441;-51
2022/09/06 11:31:55;;;;;;;;;3.60;3.60;;;;;27.95;40.02;101089.22;4973291;28;45997;-51
2022/09/06 11:34:40;;;;;;;;;4.40;4.40;;;;;29.34;38.71;101076.69;4972823;28;45583;-48